Time;durP1;ratioP1;P1;durP2;ratioP2;P2;SDS_P1;SDS_P2;PMS_P1;PMS_P2;Temp;Humidity;BMP_temperature;BMP_pressure;BME280_temperature;BME280_humidity;BME280_pressure;Samples;Min_cycle;Max_cycle;Signal;HPM_P1;HPM_P2
2023/03/03 00:00:58;;;;;;;81.00;12.50;;;1.20;99.90;;;;;;5057976;28;20051;-57
2023/03/03 00:03:26;;;;;;;63.80;10.73;;;1.40;99.90;;;;;;5062164;28;20036;-57
2023/03/03 00:05:52;;;;;;;68.13;11.75;;;1.40;99.90;;;;;;5059641;28;20047;-57
2023/03/03 00:08:19;;;;;;;70.10;11.88;;;1.10;99.90;;;;;;5058907;28;20380;-57
2023/03/03 00:10:45;;;;;;;77.07;12.45;;;1.20;99.90;;;;;;5059517;28;20032;-57
2023/03/03 00:13:20;;;;;;;66.30;12.05;;;1.50;99.90;;;;;;5059016;28;20457;-57
2023/03/03 00:15:46;;;;;;;57.05;11.20;;;0.90;99.90;;;;;;5066559;28;20083;-57
2023/03/03 00:18:36;;;;;;;49.58;11.93;;;1.20;99.90;;;;;;5057352;28;20116;-57
2023/03/03 00:21:04;;;;;;;50.15;11.20;;;1.10;99.90;;;;;;5064083;28;20049;-57
2023/03/03 00:23:42;;;;;;;47.70;11.15;;;1.50;99.90;;;;;;5058032;28;20116;-59
2023/03/03 00:26:19;;;;;;;66.32;11.00;;;1.10;99.90;;;;;;5059268;28;20040;-59
2023/03/03 00:28:50;;;;;;;84.85;11.70;;;1.10;99.90;;;;;;5061556;28;20110;-56
2023/03/03 00:31:29;;;;;;;57.45;10.88;;;0.40;99.90;;;;;;5066734;28;20127;-57
2023/03/03 00:33:58;;;;;;;117.25;11.93;;;0.60;99.90;;;;;;5057913;28;20397;-57
2023/03/03 00:36:30;;;;;;;98.25;12.27;;;1.00;99.90;;;;;;5055970;28;20370;-57
2023/03/03 00:39:32;;;;;;;111.13;12.25;;;0.40;99.90;;;;;;5063435;28;20127;-57
2023/03/03 00:41:59;;;;;;;117.20;11.68;;;0.20;99.90;;;;;;5065035;28;20043;-57
2023/03/03 00:44:43;;;;;;;112.20;12.18;;;0.70;99.90;;;;;;5059490;28;20098;-58
2023/03/03 00:47:26;;;;;;;156.40;12.77;;;0.10;99.90;;;;;;5059069;28;20060;-59
2023/03/03 00:50:10;;;;;;;82.07;12.30;;;0.40;99.90;;;;;;5062403;28;20052;-57
2023/03/03 00:52:44;;;;;;;85.80;11.90;;;0.50;99.90;;;;;;5058277;28;20477;-57
2023/03/03 00:55:11;;;;;;;103.25;12.52;;;0.00;99.90;;;;;;5062069;28;20048;-57
2023/03/03 00:57:36;;;;;;;69.35;10.85;;;-0.20;99.90;;;;;;5065947;28;20036;-57
2023/03/03 01:00:03;;;;;;;142.82;14.25;;;0.40;99.90;;;;;;5064263;28;20392;-57
2023/03/03 01:02:29;;;;;;;101.32;11.43;;;-0.20;99.90;;;;;;5061161;28;20037;-57
2023/03/03 01:04:55;;;;;;;83.78;11.32;;;0.30;99.90;;;;;;5063185;28;20037;-57
2023/03/03 01:07:22;;;;;;;110.72;11.85;;;-0.30;99.90;;;;;;5056617;28;20508;-57
2023/03/03 01:09:48;;;;;;;104.10;12.52;;;-0.30;99.90;;;;;;5062011;28;20098;-57
2023/03/03 01:12:14;;;;;;;103.90;11.48;;;0.30;99.90;;;;;;5055770;28;20040;-57
2023/03/03 01:14:40;;;;;;;140.65;13.43;;;0.10;99.90;;;;;;5063690;28;20045;-57
2023/03/03 01:17:06;;;;;;;97.68;11.73;;;0.00;99.90;;;;;;5059568;28;20079;-57
2023/03/03 01:19:32;;;;;;;60.10;10.27;;;-0.30;99.90;;;;;;5058599;28;20033;-57
2023/03/03 01:21:57;;;;;;;45.30;10.68;;;-0.50;99.90;;;;;;5056019;28;20086;-57
2023/03/03 01:24:23;;;;;;;54.08;11.95;;;0.10;99.90;;;;;;5062553;28;20044;-57
2023/03/03 01:26:49;;;;;;;42.88;11.35;;;-0.40;99.90;;;;;;5062471;28;20074;-57
2023/03/03 01:29:14;;;;;;;44.58;10.35;;;-0.50;99.90;;;;;;5064791;28;20404;-57
2023/03/03 01:31:40;;;;;;;18.23;8.73;;;-0.40;99.90;;;;;;5054421;28;20072;-57
2023/03/03 01:34:06;;;;;;;26.55;8.95;;;-0.20;99.90;;;;;;5061586;28;20040;-56
2023/03/03 01:36:32;;;;;;;22.17;8.23;;;-0.20;99.90;;;;;;5057336;28;20051;-57
2023/03/03 01:38:58;;;;;;;18.45;8.80;;;-0.70;99.90;;;;;;5059315;28;20508;-57
2023/03/03 01:41:33;;;;;;;21.38;7.93;;;-0.20;99.90;;;;;;5066196;28;20123;-57
2023/03/03 01:43:59;;;;;;;17.98;8.23;;;-0.30;99.90;;;;;;5067828;28;20036;-57
2023/03/03 01:46:31;;;;;;;13.52;8.07;;;-1.00;99.90;;;;;;5065095;28;20626;-57
2023/03/03 01:49:01;;;;;;;14.88;8.35;;;-0.40;99.90;;;;;;5057212;28;20481;-57
2023/03/03 01:51:35;;;;;;;14.35;8.07;;;-0.40;99.90;;;;;;5066418;28;20454;-57
2023/03/03 01:54:03;;;;;;;13.63;7.40;;;-0.90;99.90;;;;;;5060162;28;20297;-57
2023/03/03 01:56:29;;;;;;;14.95;8.70;;;-0.50;99.90;;;;;;5058479;28;20506;-57
2023/03/03 01:59:06;;;;;;;13.80;8.25;;;-0.50;99.90;;;;;;5065911;28;20446;-58
2023/03/03 02:01:32;;;;;;;13.63;8.25;;;-0.80;99.90;;;;;;5065918;28;20502;-56
2023/03/03 02:03:59;;;;;;;12.90;7.63;;;-0.60;99.90;;;;;;5061711;28;20111;-57
2023/03/03 02:06:32;;;;;;;14.52;8.45;;;-0.80;99.90;;;;;;5056736;28;20400;-57
2023/03/03 02:09:23;;;;;;;14.50;8.30;;;-0.30;99.90;;;;;;5062608;28;20119;-57
2023/03/03 02:11:51;;;;;;;13.23;8.27;;;-0.30;99.90;;;;;;5061562;28;20495;-57
2023/03/03 02:14:17;;;;;;;13.45;7.90;;;-0.40;99.90;;;;;;5066591;28;20083;-57
2023/03/03 02:16:44;;;;;;;13.55;7.70;;;-0.50;99.90;;;;;;5065070;28;20068;-57
2023/03/03 02:19:30;;;;;;;13.57;7.75;;;-0.40;99.90;;;;;;5064280;28;20037;-56
2023/03/03 02:21:56;;;;;;;13.15;7.70;;;-0.40;99.90;;;;;;5064444;28;20029;-57
2023/03/03 02:24:32;;;;;;;12.13;7.53;;;-0.90;99.90;;;;;;5067247;28;20044;-57
2023/03/03 02:26:58;;;;;;;13.15;8.13;;;-0.70;99.90;;;;;;5068484;28;20497;-57
2023/03/03 02:29:24;;;;;;;12.90;7.13;;;-0.90;99.90;;;;;;5058148;28;20044;-57
2023/03/03 02:31:49;;;;;;;13.40;8.07;;;-1.00;99.90;;;;;;5065821;28;20119;-57
2023/03/03 02:34:15;;;;;;;14.13;8.25;;;-0.60;99.90;;;;;;5061173;28;20516;-57
2023/03/03 02:36:41;;;;;;;13.75;8.30;;;-1.00;99.90;;;;;;5060978;28;20092;-57
2023/03/03 02:39:25;;;;;;;13.30;7.82;;;-0.70;99.90;;;;;;5066008;28;20417;-57
2023/03/03 02:42:15;;;;;;;14.95;8.60;;;-0.70;99.90;;;;;;5066394;28;20492;-57
2023/03/03 02:44:41;;;;;;;12.40;7.93;;;-1.00;99.90;;;;;;5059820;28;20044;-57
2023/03/03 02:47:07;;;;;;;14.73;8.43;;;-0.40;99.90;;;;;;5064351;28;20525;-57
2023/03/03 02:49:34;;;;;;;13.02;7.80;;;-0.90;99.90;;;;;;5063109;28;20492;-57
2023/03/03 02:52:02;;;;;;;14.88;8.45;;;-0.50;99.90;;;;;;5061754;28;20261;-57
2023/03/03 02:54:32;;;;;;;13.88;8.00;;;-0.40;99.90;;;;;;5065671;28;20041;-57
2023/03/03 02:56:59;;;;;;;14.30;8.70;;;-0.80;99.90;;;;;;5062987;28;20032;-57
2023/03/03 02:59:25;;;;;;;13.02;8.15;;;-0.50;99.90;;;;;;5062327;28;20147;-57
2023/03/03 03:01:51;;;;;;;15.15;8.63;;;-0.40;99.90;;;;;;5064475;28;20029;-57
2023/03/03 03:04:19;;;;;;;12.95;7.65;;;-0.30;99.90;;;;;;5060164;28;20520;-57
2023/03/03 03:06:45;;;;;;;14.68;8.77;;;-0.50;99.90;;;;;;5061375;28;20041;-57
2023/03/03 03:09:12;;;;;;;14.30;8.18;;;-0.50;99.90;;;;;;5070554;28;20032;-57
2023/03/03 03:11:38;;;;;;;15.05;9.15;;;-0.30;99.90;;;;;;5059923;28;20029;-57
2023/03/03 03:14:05;;;;;;;14.70;8.43;;;-0.70;99.90;;;;;;5062845;28;20036;-57
2023/03/03 03:16:31;;;;;;;14.38;8.30;;;-0.40;99.90;;;;;;5065725;28;20032;-57
2023/03/03 03:18:58;;;;;;;13.85;8.30;;;-0.50;99.90;;;;;;5062815;28;20469;-57
2023/03/03 03:21:24;;;;;;;13.93;7.50;;;-0.80;99.90;;;;;;5063745;28;20078;-57
2023/03/03 03:23:50;;;;;;;14.20;8.25;;;-0.30;99.90;;;;;;5067625;28;20036;-58
2023/03/03 03:26:16;;;;;;;15.20;8.23;;;-0.80;99.90;;;;;;5058716;28;20119;-57
2023/03/03 03:28:42;;;;;;;12.75;7.63;;;-0.40;99.90;;;;;;5059854;28;20123;-57
2023/03/03 03:31:09;;;;;;;15.77;8.77;;;-0.90;99.90;;;;;;5060421;28;20129;-57
2023/03/03 03:33:35;;;;;;;14.65;8.50;;;-0.40;99.90;;;;;;5063873;28;20493;-58
2023/03/03 03:36:02;;;;;;;15.25;8.50;;;-0.80;99.90;;;;;;5055617;28;20499;-57
2023/03/03 03:38:28;;;;;;;15.70;8.60;;;-0.80;99.90;;;;;;5063382;28;20048;-58
2023/03/03 03:40:54;;;;;;;16.52;8.70;;;-0.50;99.90;;;;;;5063625;28;20076;-58
2023/03/03 03:43:21;;;;;;;14.18;7.95;;;-1.10;99.90;;;;;;5066160;28;20071;-56
2023/03/03 03:45:46;;;;;;;17.58;9.93;;;-0.70;99.90;;;;;;5062481;28;20041;-57
2023/03/03 03:48:12;;;;;;;16.48;10.02;;;-1.20;99.90;;;;;;5063241;28;20049;-57
2023/03/03 03:50:38;;;;;;;14.02;8.65;;;-1.00;99.90;;;;;;5061489;28;20370;-57
2023/03/03 03:53:05;;;;;;;14.38;8.32;;;-0.90;99.90;;;;;;5057921;28;20052;-57
2023/03/03 03:55:30;;;;;;;14.45;8.50;;;-0.90;99.90;;;;;;5063056;28;20037;-58
2023/03/03 03:57:56;;;;;;;14.98;8.50;;;-0.70;99.90;;;;;;5062677;28;20370;-56
2023/03/03 04:00:22;;;;;;;15.07;7.65;;;-0.70;99.90;;;;;;5063693;28;20445;-56
2023/03/03 04:02:48;;;;;;;16.15;8.20;;;-0.60;99.90;;;;;;5056177;28;20048;-57
2023/03/03 04:05:14;;;;;;;14.18;8.38;;;-1.00;99.90;;;;;;5063333;28;20048;-57
2023/03/03 04:07:40;;;;;;;15.57;9.13;;;-1.00;99.90;;;;;;5063608;28;20055;-57
2023/03/03 04:10:06;;;;;;;15.13;8.35;;;-1.00;99.90;;;;;;5064648;28;20044;-57
2023/03/03 04:12:37;;;;;;;14.70;8.65;;;-1.00;99.90;;;;;;5062793;28;20452;-57
2023/03/03 04:15:05;;;;;;;13.93;8.55;;;-0.80;99.90;;;;;;5055277;28;20041;-56
2023/03/03 04:17:31;;;;;;;16.77;9.02;;;-1.00;99.90;;;;;;5059709;28;20119;-58
2023/03/03 04:19:56;;;;;;;14.20;8.57;;;-0.80;99.90;;;;;;5058104;28;20037;-57
2023/03/03 04:22:22;;;;;;;16.33;8.50;;;-0.60;99.90;;;;;;5063739;28;20110;-59
2023/03/03 04:24:48;;;;;;;15.82;8.02;;;-0.60;99.90;;;;;;5056891;28;20048;-57
2023/03/03 04:27:14;;;;;;;16.10;8.95;;;-0.60;99.90;;;;;;5062334;28;20492;-58
2023/03/03 04:29:40;;;;;;;16.33;8.80;;;-0.50;99.90;;;;;;5062758;28;20041;-57
2023/03/03 04:32:06;;;;;;;16.38;8.80;;;-1.00;99.90;;;;;;5063167;28;20111;-57
2023/03/03 04:34:32;;;;;;;15.15;9.38;;;-0.50;99.90;;;;;;5056255;28;20122;-56
2023/03/03 04:36:58;;;;;;;15.93;8.95;;;-0.80;99.90;;;;;;5056612;28;20160;-56
2023/03/03 04:39:24;;;;;;;16.75;8.23;;;-0.50;99.90;;;;;;5056808;28;20036;-56
2023/03/03 04:41:49;;;;;;;14.18;8.00;;;-0.50;99.90;;;;;;5061411;28;20082;-56
2023/03/03 04:44:15;;;;;;;14.45;8.48;;;-0.90;99.90;;;;;;5061992;28;20095;-56
2023/03/03 04:46:41;;;;;;;14.98;8.70;;;-0.60;99.90;;;;;;5062995;28;20112;-56
2023/03/03 04:49:07;;;;;;;15.15;8.52;;;-1.00;99.90;;;;;;5060571;28;20136;-55
2023/03/03 04:51:34;;;;;;;16.27;8.68;;;-0.60;99.90;;;;;;5059610;28;20500;-57
2023/03/03 04:54:00;;;;;;;15.32;8.60;;;-0.90;99.90;;;;;;5055007;28;20048;-57
2023/03/03 04:56:27;;;;;;;13.30;8.13;;;-0.70;99.90;;;;;;5059547;28;20060;-57
2023/03/03 04:58:53;;;;;;;14.95;7.88;;;-0.90;99.90;;;;;;5055639;28;20048;-55
2023/03/03 05:01:19;;;;;;;16.75;8.60;;;-0.60;99.90;;;;;;5055649;28;20389;-56
2023/03/03 05:03:44;;;;;;;16.30;9.10;;;-1.00;99.90;;;;;;5064461;28;20119;-57
2023/03/03 05:06:10;;;;;;;15.52;8.32;;;-1.00;99.90;;;;;;5062559;28;21294;-57
2023/03/03 05:08:36;;;;;;;14.23;7.80;;;-0.60;99.90;;;;;;5064059;28;20036;-57
2023/03/03 05:11:02;;;;;;;14.68;8.23;;;-0.80;99.90;;;;;;5054467;28;20037;-57
2023/03/03 05:13:28;;;;;;;17.42;8.55;;;-0.50;99.90;;;;;;5063400;28;20033;-57
2023/03/03 05:15:55;;;;;;;13.68;8.20;;;-0.90;99.90;;;;;;5058698;28;20041;-57
2023/03/03 05:18:25;;;;;;;14.60;8.55;;;-0.90;99.90;;;;;;5055439;28;20037;-57
2023/03/03 05:20:52;;;;;;;13.48;7.90;;;-0.90;99.90;;;;;;5058246;28;20055;-57
2023/03/03 05:23:18;;;;;;;15.00;8.48;;;-1.00;99.90;;;;;;5055956;28;20550;-57
2023/03/03 05:25:46;;;;;;;14.73;8.23;;;-0.80;99.90;;;;;;5060868;28;20045;-57
2023/03/03 05:28:12;;;;;;;14.30;8.43;;;-0.80;99.90;;;;;;5070892;28;20033;-57
2023/03/03 05:30:37;;;;;;;13.52;8.27;;;-0.90;99.90;;;;;;5056923;28;20143;-57
2023/03/03 05:33:04;;;;;;;14.57;8.10;;;-0.60;99.90;;;;;;5041368;28;20071;-57
2023/03/03 05:35:30;;;;;;;14.23;8.10;;;-0.60;99.90;;;;;;5058002;28;20521;-57
2023/03/03 05:37:57;;;;;;;14.48;8.40;;;-1.10;99.90;;;;;;5056703;28;20178;-57
2023/03/03 05:40:26;;;;;;;14.45;7.80;;;-0.90;99.90;;;;;;5062035;28;20045;-57
2023/03/03 05:42:52;;;;;;;14.95;7.85;;;-0.70;99.90;;;;;;5059935;28;20065;-57
2023/03/03 05:45:20;;;;;;;15.05;8.07;;;-0.70;99.90;;;;;;5063184;28;20064;-57
2023/03/03 05:47:46;;;;;;;12.65;7.07;;;-0.70;99.90;;;;;;5063367;28;20065;-57
2023/03/03 05:50:12;;;;;;;14.35;8.02;;;-0.90;99.90;;;;;;5062245;28;20032;-57
2023/03/03 05:52:38;;;;;;;14.02;8.40;;;-1.10;99.90;;;;;;5059844;28;20037;-57
2023/03/03 05:55:04;;;;;;;12.98;7.47;;;-0.90;99.90;;;;;;5054381;28;20378;-57
2023/03/03 05:57:30;;;;;;;13.10;7.97;;;-1.00;99.90;;;;;;5056075;28;20033;-55
2023/03/03 05:59:56;;;;;;;14.23;7.75;;;-1.20;99.90;;;;;;5053017;28;20044;-57
2023/03/03 06:02:22;;;;;;;17.42;8.18;;;-1.00;99.90;;;;;;5061729;28;20369;-57
2023/03/03 06:04:47;;;;;;;13.93;7.57;;;-1.20;99.90;;;;;;5051230;28;20475;-57
2023/03/03 06:07:13;;;;;;;14.68;7.82;;;-1.30;99.90;;;;;;5052173;28;20048;-56
2023/03/03 06:09:39;;;;;;;14.90;8.10;;;-1.20;99.90;;;;;;5065709;28;20037;-57
2023/03/03 06:12:05;;;;;;;13.57;7.72;;;-1.00;99.90;;;;;;5066760;28;20036;-57
2023/03/03 06:14:31;;;;;;;13.55;7.57;;;-1.20;99.90;;;;;;5063914;28;20040;-57
2023/03/03 06:16:56;;;;;;;15.65;9.35;;;-0.90;99.90;;;;;;5057463;28;20459;-58
2023/03/03 06:19:23;;;;;;;14.25;7.80;;;-0.70;99.90;;;;;;5067555;28;20043;-55
2023/03/03 06:21:48;;;;;;;14.77;7.22;;;-1.20;99.90;;;;;;5069672;28;20518;-57
2023/03/03 06:24:14;;;;;;;13.73;7.40;;;-0.90;99.90;;;;;;5071744;28;20045;-57
2023/03/03 06:26:40;;;;;;;16.23;8.05;;;-0.80;99.90;;;;;;5073256;28;20086;-57
2023/03/03 06:29:07;;;;;;;13.30;6.75;;;-0.90;99.90;;;;;;5074984;28;20409;-57
2023/03/03 06:31:32;;;;;;;14.57;5.97;;;-0.70;99.90;;;;;;5074732;28;20476;-56
2023/03/03 06:33:58;;;;;;;10.13;5.25;;;-1.00;99.90;;;;;;5073119;28;20044;-57
2023/03/03 06:36:24;;;;;;;9.35;4.75;;;-1.10;99.90;;;;;;5073143;28;20025;-57
2023/03/03 06:38:50;;;;;;;10.30;5.22;;;-0.60;99.90;;;;;;5074646;28;20119;-56
2023/03/03 06:41:16;;;;;;;8.63;4.68;;;-1.00;99.90;;;;;;5073082;28;20032;-57
2023/03/03 06:43:42;;;;;;;10.80;4.65;;;-0.90;99.90;;;;;;5074408;28;20443;-57
2023/03/03 06:46:08;;;;;;;9.77;4.68;;;-0.60;99.90;;;;;;5074475;28;20494;-57
2023/03/03 06:48:33;;;;;;;9.75;4.47;;;-0.80;99.90;;;;;;5074131;28;20128;-59
2023/03/03 06:51:02;;;;;;;9.55;4.53;;;-1.00;99.90;;;;;;5074092;28;20088;-57
2023/03/03 06:53:30;;;;;;;10.45;4.22;;;-0.50;99.90;;;;;;5059300;28;20029;-57
2023/03/03 06:55:57;;;;;;;8.55;4.47;;;-0.50;99.90;;;;;;5053942;28;20092;-59
2023/03/03 06:58:26;;;;;;;10.80;5.20;;;-0.70;99.90;;;;;;5063748;28;20044;-58
2023/03/03 07:00:58;;;;;;;10.63;4.50;;;-0.60;99.90;;;;;;5072814;28;20186;-57
2023/03/03 07:03:33;;;;;;;11.23;4.35;;;-0.40;99.90;;;;;;5074084;28;20044;-57
2023/03/03 07:05:59;;;;;;;10.80;4.10;;;-0.30;99.90;;;;;;5073848;28;20273;-57
2023/03/03 07:08:28;;;;;;;11.20;3.53;;;-0.50;99.90;;;;;;5074455;28;20416;-57
2023/03/03 07:10:54;;;;;;;9.00;3.92;;;-0.60;99.90;;;;;;5072613;28;20055;-57
2023/03/03 07:13:22;;;;;;;9.77;4.10;;;-0.60;99.90;;;;;;5057123;28;20396;-58
2023/03/03 07:15:51;;;;;;;7.00;3.25;;;-0.10;99.90;;;;;;5060522;28;20169;-57
2023/03/03 07:18:36;;;;;;;9.05;3.35;;;-0.50;99.90;;;;;;5062055;28;20098;-57
2023/03/03 07:21:16;;;;;;;8.77;3.63;;;-0.10;99.90;;;;;;5054897;28;20049;-57
2023/03/03 07:23:43;;;;;;;7.95;3.35;;;0.20;99.90;;;;;;5055797;28;20037;-57
2023/03/03 07:26:14;;;;;;;6.85;3.22;;;0.00;99.90;;;;;;5063722;28;20119;-57
2023/03/03 07:28:42;;;;;;;6.38;2.78;;;0.10;99.90;;;;;;5071925;28;20036;-57
2023/03/03 07:31:36;;;;;;;5.75;2.33;;;0.00;99.90;;;;;;5050992;28;20045;-57
2023/03/03 07:34:14;;;;;;;6.53;2.80;;;0.40;99.90;;;;;;5050951;28;20052;-57
2023/03/03 07:36:40;;;;;;;6.22;2.72;;;-0.10;99.90;;;;;;5050802;28;20040;-57
2023/03/03 07:39:31;;;;;;;6.18;3.00;;;0.00;99.90;;;;;;5051728;28;20508;-57
2023/03/03 07:42:21;;;;;;;6.10;2.50;;;0.50;99.90;;;;;;5055518;28;20079;-57
2023/03/03 07:44:51;;;;;;;6.75;2.95;;;0.10;99.90;;;;;;5050458;28;20060;-57
2023/03/03 07:47:28;;;;;;;6.47;2.63;;;0.20;99.90;;;;;;5051435;28;20076;-57
2023/03/03 07:49:56;;;;;;;6.07;2.78;;;0.80;99.90;;;;;;5057864;28;20504;-56
2023/03/03 07:52:38;;;;;;;7.55;2.80;;;0.40;99.90;;;;;;5070347;28;20563;-56
2023/03/03 07:55:36;;;;;;;7.28;2.45;;;0.30;99.90;;;;;;5071566;28;20051;-57
2023/03/03 07:58:11;;;;;;;5.88;2.50;;;0.90;99.90;;;;;;5052734;28;20497;-57
2023/03/03 08:01:15;;;;;;;7.60;3.00;;;0.40;99.90;;;;;;5067110;28;20044;-57
2023/03/03 08:03:45;;;;;;;5.72;2.65;;;1.10;99.90;;;;;;5071471;28;20063;-57
2023/03/03 08:06:47;;;;;;;6.80;3.10;;;1.10;99.90;;;;;;5071044;28;20068;-57
2023/03/03 08:09:18;;;;;;;6.47;2.70;;;1.20;99.90;;;;;;5062713;28;20396;-57
2023/03/03 08:11:48;;;;;;;6.57;2.60;;;0.60;99.90;;;;;;5071205;28;20128;-59
2023/03/03 08:14:24;;;;;;;6.32;2.92;;;0.60;99.90;;;;;;5069559;28;20049;-57
2023/03/03 08:16:50;;;;;;;6.70;3.90;;;0.70;99.90;;;;;;5053299;28;20059;-58
2023/03/03 08:19:17;;;;;;;6.85;3.10;;;0.70;99.90;;;;;;5071292;28;20223;-58
2023/03/03 08:21:43;;;;;;;6.22;2.88;;;0.80;99.90;;;;;;5071088;28;20045;-57
2023/03/03 08:24:08;;;;;;;6.05;2.88;;;0.90;99.90;;;;;;5063369;28;20378;-58
2023/03/03 08:26:34;;;;;;;7.50;3.25;;;1.50;99.90;;;;;;5063267;28;20036;-57
2023/03/03 08:29:00;;;;;;;7.35;3.28;;;1.00;99.90;;;;;;5064363;28;20032;-58
2023/03/03 08:31:26;;;;;;;7.25;2.90;;;1.60;99.90;;;;;;5052055;28;20106;-59
2023/03/03 08:33:52;;;;;;;7.50;3.10;;;1.70;99.90;;;;;;5051104;28;20044;-58
2023/03/03 08:36:18;;;;;;;7.00;3.15;;;1.30;99.90;;;;;;5066026;28;20089;-57
2023/03/03 08:38:44;;;;;;;7.47;3.30;;;1.20;99.90;;;;;;5070775;28;20040;-57
2023/03/03 08:41:10;;;;;;;9.07;3.28;;;1.30;99.90;;;;;;5070873;28;20058;-57
2023/03/03 08:43:36;;;;;;;6.85;4.18;;;1.90;99.90;;;;;;5070672;28;20489;-57
2023/03/03 08:46:04;;;;;;;7.90;3.75;;;1.60;99.90;;;;;;5070762;28;20055;-58
2023/03/03 08:48:30;;;;;;;6.32;2.88;;;2.20;99.90;;;;;;5069022;28;20060;-57
2023/03/03 08:50:57;;;;;;;11.30;4.65;;;1.50;99.90;;;;;;5070105;28;20574;-58
2023/03/03 08:53:23;;;;;;;9.73;4.13;;;1.90;99.90;;;;;;5069775;28;20047;-57
2023/03/03 08:55:49;;;;;;;8.18;4.32;;;1.80;99.90;;;;;;5069118;28;20044;-57
2023/03/03 08:58:17;;;;;;;8.95;3.88;;;2.50;99.90;;;;;;5068492;28;20036;-57
2023/03/03 09:00:44;;;;;;;12.65;6.13;;;2.70;99.90;;;;;;5070619;28;20400;-58
2023/03/03 09:03:09;;;;;;;9.88;4.70;;;2.80;99.90;;;;;;5056974;28;20045;-58
2023/03/03 09:05:37;;;;;;;15.10;7.45;;;2.40;99.90;;;;;;5049969;28;20055;-57
2023/03/03 09:08:03;;;;;;;11.60;6.30;;;2.50;99.90;;;;;;5065701;28;20196;-58
2023/03/03 09:10:30;;;;;;;9.85;4.15;;;2.40;99.90;;;;;;5069953;28;20512;-58
2023/03/03 09:13:13;;;;;;;8.60;3.65;;;2.50;99.90;;;;;;5059790;28;20555;-58
2023/03/03 09:15:39;;;;;;;7.65;4.55;;;3.50;99.90;;;;;;5060075;28;20041;-58
2023/03/03 09:18:07;;;;;;;7.25;3.75;;;3.50;99.90;;;;;;5060935;28;20035;-57
2023/03/03 09:20:45;;;;;;;13.38;7.05;;;2.90;99.90;;;;;;5064111;28;20052;-57
2023/03/03 09:23:23;;;;;;;15.32;8.18;;;3.00;99.90;;;;;;5058040;28;20051;-57
2023/03/03 09:25:49;;;;;;;12.57;6.53;;;2.90;99.90;;;;;;5058628;28;20036;-57
2023/03/03 09:28:33;;;;;;;10.48;5.32;;;2.90;99.90;;;;;;5062018;28;20174;-57
2023/03/03 09:31:01;;;;;;;7.43;3.80;;;3.80;99.90;;;;;;5062756;28;20048;-57
2023/03/03 09:33:43;;;;;;;11.02;3.75;;;3.50;99.90;;;;;;5060309;28;20029;-57
2023/03/03 09:36:34;;;;;;;9.48;4.53;;;4.20;99.90;;;;;;5056868;28;20045;-57
2023/03/03 09:39:09;;;;;;;9.77;4.63;;;3.50;99.90;;;;;;5051374;28;20059;-57
2023/03/03 09:41:56;;;;;;;9.45;4.30;;;4.50;99.90;;;;;;5056869;28;20393;-57
2023/03/03 09:44:41;;;;;;;10.65;4.40;;;3.60;99.90;;;;;;5071650;28;20468;-57
2023/03/03 09:47:29;;;;;;;10.40;4.00;;;4.30;99.90;;;;;;5071286;28;20040;-57
2023/03/03 09:50:21;;;;;;;10.98;3.53;;;4.70;99.90;;;;;;5070473;28;20052;-57
2023/03/03 09:53:11;;;;;;;12.00;5.00;;;3.90;99.90;;;;;;5071523;28;20493;-57
2023/03/03 09:55:48;;;;;;;8.75;3.80;;;4.80;99.90;;;;;;5071320;28;20119;-57
2023/03/03 09:58:26;;;;;;;9.23;3.55;;;5.20;99.90;;;;;;5071208;28;20484;-56
2023/03/03 10:01:12;;;;;;;9.60;2.90;;;4.30;99.90;;;;;;5073330;28;20442;-57
2023/03/03 10:04:11;;;;;;;6.10;2.08;;;4.80;99.90;;;;;;5055152;28;20053;-58
2023/03/03 10:06:50;;;;;;;5.10;1.50;;;5.30;99.90;;;;;;5067872;28;20052;-59
2023/03/03 10:09:59;;;;;;;3.55;1.40;;;5.00;99.90;;;;;;5069053;28;20104;-60
2023/03/03 10:12:34;;;;;;;7.47;1.90;;;5.50;99.90;;;;;;5067662;28;20040;-59
2023/03/03 10:15:11;;;;;;;3.03;1.30;;;5.40;99.90;;;;;;5067222;28;20090;-59
2023/03/03 10:17:52;;;;;;;4.13;1.50;;;5.40;99.90;;;;;;5069130;28;20082;-60
2023/03/03 10:20:36;;;;;;;7.78;1.23;;;5.60;99.90;;;;;;5067968;28;20040;-59
2023/03/03 10:23:22;;;;;;;4.55;1.02;;;5.50;99.90;;;;;;5067629;28;20472;-59
2023/03/03 10:26:21;;;;;;;3.60;0.82;;;5.80;99.90;;;;;;5067958;28;20052;-59
2023/03/03 10:29:19;;;;;;;5.18;0.88;;;5.70;99.90;;;;;;5069463;28;20076;-60
2023/03/03 10:32:16;;;;;;;5.30;1.00;;;5.90;99.90;;;;;;5067679;28;20056;-60
2023/03/03 10:35:11;;;;;;;9.02;1.50;;;5.80;99.90;;;;;;5033946;28;20123;-59
2023/03/03 10:37:55;;;;;;;7.10;1.48;;;5.90;99.90;;;;;;5068821;28;20036;-60
2023/03/03 10:40:33;;;;;;;3.63;1.08;;;5.90;99.90;;;;;;5066735;28;20080;-60
2023/03/03 10:43:18;;;;;;;4.15;1.00;;;5.90;99.90;;;;;;5067161;28;20033;-59
2023/03/03 10:46:04;;;;;;;4.20;1.05;;;5.90;99.90;;;;;;5067635;28;20443;-56
2023/03/03 10:49:02;;;;;;;7.65;1.30;;;6.00;99.90;;;;;;5066718;28;20039;-59
2023/03/03 10:51:52;;;;;;;4.63;1.30;;;5.90;99.90;;;;;;5067617;28;20052;-60
2023/03/03 10:54:21;;;;;;;3.28;0.90;;;6.00;99.90;;;;;;5068221;28;20402;-60
2023/03/03 10:57:10;;;;;;;9.60;1.98;;;5.90;99.90;;;;;;5068024;28;20119;-60
2023/03/03 11:00:06;;;;;;;3.63;1.00;;;6.00;99.90;;;;;;5062737;28;20511;-59
2023/03/03 11:02:55;;;;;;;3.42;0.85;;;6.00;99.90;;;;;;5068286;28;20032;-59
2023/03/03 11:05:42;;;;;;;5.65;1.08;;;5.90;99.90;;;;;;5066051;28;20289;-59
2023/03/03 11:08:32;;;;;;;3.47;0.90;;;5.90;99.90;;;;;;5067776;28;20105;-59
2023/03/03 11:11:28;;;;;;;1.63;0.70;;;6.00;99.90;;;;;;5064659;28;20099;-59
2023/03/03 11:14:05;;;;;;;3.35;1.02;;;6.10;99.90;;;;;;5064503;28;20049;-60
2023/03/03 11:16:40;;;;;;;3.20;1.05;;;6.30;99.90;;;;;;5066163;28;20431;-59
2023/03/03 11:19:39;;;;;;;2.72;0.88;;;6.30;99.90;;;;;;5063462;28;20380;-60
2023/03/03 11:22:19;;;;;;;5.15;0.90;;;6.30;99.90;;;;;;5078541;28;20115;-59
2023/03/03 11:25:05;;;;;;;5.47;0.93;;;6.40;99.90;;;;;;5063436;28;20052;-59
2023/03/03 11:28:21;;;;;;;8.40;1.73;;;6.50;99.90;;;;;;5064115;28;20063;-59
2023/03/03 11:31:12;;;;;;;4.18;0.85;;;6.50;99.90;;;;;;5038569;28;20075;-60
2023/03/03 11:33:50;;;;;;;2.70;0.90;;;6.50;99.90;;;;;;5064499;28;20632;-59
2023/03/03 11:36:50;;;;;;;4.30;1.02;;;6.70;99.90;;;;;;5062709;28;20044;-59
2023/03/03 11:39:22;;;;;;;5.10;0.80;;;6.60;99.90;;;;;;5052736;28;20060;-59
2023/03/03 11:41:53;;;;;;;9.10;1.10;;;6.70;99.90;;;;;;5062000;28;20397;-59
2023/03/03 11:44:40;;;;;;;8.55;1.20;;;6.70;99.90;;;;;;5062901;28;20040;-58
2023/03/03 11:47:24;;;;;;;8.20;1.45;;;6.60;99.90;;;;;;5065075;28;20040;-59
2023/03/03 11:50:04;;;;;;;6.82;1.20;;;6.70;99.90;;;;;;5064639;28;20536;-60
2023/03/03 11:52:54;;;;;;;6.65;1.15;;;6.70;99.90;;;;;;5064239;28;20093;-59
2023/03/03 11:55:29;;;;;;;6.80;1.10;;;6.80;99.90;;;;;;5063486;28;20040;-59
2023/03/03 11:58:13;;;;;;;10.40;1.65;;;6.80;99.90;;;;;;5064731;28;20036;-60
2023/03/03 12:00:54;;;;;;;7.38;1.27;;;6.80;99.90;;;;;;5064618;28;20099;-60
2023/03/03 12:03:52;;;;;;;7.00;1.30;;;7.00;99.90;;;;;;5063462;28;20298;-59
2023/03/03 12:06:42;;;;;;;7.00;1.45;;;7.30;99.90;;;;;;5062516;28;20047;-60
2023/03/03 12:09:16;;;;;;;8.15;1.10;;;7.10;99.90;;;;;;5064276;28;20074;-60
2023/03/03 12:12:03;;;;;;;9.13;1.58;;;7.00;99.90;;;;;;5063844;28;20048;-59
2023/03/03 12:14:54;;;;;;;11.45;1.20;;;7.00;99.90;;;;;;5063859;28;20051;-59
2023/03/03 12:18:11;;;;;;;12.82;2.75;;;7.00;99.90;;;;;;5053561;28;20057;-59
2023/03/03 12:20:42;;;;;;;8.40;1.50;;;7.00;99.90;;;;;;5046154;28;20056;-59
2023/03/03 12:23:31;;;;;;;9.20;1.55;;;7.00;99.90;;;;;;5062372;28;20037;-60
2023/03/03 12:26:10;;;;;;;10.23;1.73;;;6.90;99.90;;;;;;5034089;28;20040;-59
2023/03/03 12:28:41;;;;;;;6.20;1.20;;;6.90;99.90;;;;;;5063259;28;20123;-59
2023/03/03 12:31:25;;;;;;;5.22;1.15;;;6.90;99.90;;;;;;5061475;28;20124;-60
2023/03/03 12:33:58;;;;;;;9.00;1.27;;;7.00;99.90;;;;;;5062905;28;20051;-59
2023/03/03 12:36:51;;;;;;;12.32;1.90;;;6.80;99.90;;;;;;5063108;28;20040;-60
2023/03/03 12:41:50;;;;;;;9.63;1.30;;;6.80;99.90;;;;;;5064809;22;20056;-73
2023/03/03 12:44:34;;;;;;;7.57;1.38;;;6.90;99.90;;;;;;5038375;28;20104;-72
2023/03/03 12:47:14;;;;;;;8.52;1.52;;;7.00;99.90;;;;;;5062374;28;20052;-73
2023/03/03 12:50:08;;;;;;;8.45;1.60;;;7.10;99.90;;;;;;5046758;28;20044;-72
2023/03/03 12:52:58;;;;;;;9.35;1.70;;;7.20;99.90;;;;;;5033886;28;20053;-72
2023/03/03 12:55:46;;;;;;;9.40;1.55;;;7.20;99.90;;;;;;5034815;28;20049;-73
2023/03/03 12:58:49;;;;;;;10.60;1.63;;;7.00;99.90;;;;;;5049048;28;20044;-72
2023/03/03 13:01:21;;;;;;;12.32;2.33;;;7.00;99.90;;;;;;5034511;28;20401;-72
2023/03/03 13:03:56;;;;;;;12.10;2.53;;;7.10;99.90;;;;;;5051260;28;20046;-72
2023/03/03 13:06:33;;;;;;;13.60;2.35;;;7.00;99.90;;;;;;5019466;28;20493;-72
2023/03/03 13:09:05;;;;;;;10.55;1.90;;;7.10;99.90;;;;;;5046735;28;20505;-73
2023/03/03 13:11:44;;;;;;;16.88;2.58;;;7.00;99.90;;;;;;5035928;28;20047;-72
2023/03/03 13:14:09;;;;;;;16.10;2.25;;;7.00;99.90;;;;;;5043422;28;20240;-73
2023/03/03 13:16:45;;;;;;;17.38;2.58;;;7.00;99.90;;;;;;5017502;28;20501;-71